Red Rose — HOSP — position and weather

sailwx.info

Track history (hours):
 
Tides and Currents Weather Stations Pressure Air Temp Water Temp Dewpoint Dewpoint Depression Visibility Wind Speed Wind Dir Waves Ship Positions

Red Rose

Last reported at 2018-Apr-05 18:45 UTC. Time now 2018-May-22 10:07 UTC.
Position N 01°25' E 103°10'.
Warning: this ship's position is 46 days out of date.

Length 225 m; draft 8.7 m.

Type: Cargo ship. MMSI: 356467000.

Date/timePositionNaut miles runAvg speedWind from/ knotsBaromVisibWave heightAir tempDewpointWater temp
2018-Apr-05 18:45N 01°25' E 103°10'512.6
2018-Apr-05 18:20N 01°22' E 103°15'512.5
2018-Apr-05 17:55N 01°19' E 103°19'612.1
2018-Apr-05 17:26N 01°16' E 103°23'511.7
2018-Apr-05 17:01N 01°14' E 103°28'612.1
2018-Apr-05 16:30N 01°12' E 103°34'611.4
2018-Apr-05 16:01N 01°11' E 103°39'510.1
2018-Apr-05 15:30N 01°08' E 103°44'713.0
2018-Apr-05 15:00N 01°11' E 103°50'612.6
2018-Apr-05 14:30N 01°14' E 103°56'  
Track history (hours):
 
Tides and Currents Weather Stations Pressure Air Temp Water Temp Dewpoint Dewpoint Depression Visibility Wind Speed Wind Dir Waves Ship Positions

Red Rose

Last reported at 2018-Apr-05 18:45 UTC. Time now 2018-May-22 10:07 UTC.
Position N 01°25' E 103°10'.
Warning: this ship's position is 46 days out of date.

Length 225 m; draft 8.7 m.

Type: Cargo ship. MMSI: 356467000.

Date/timePositionNaut miles runAvg speedWind from/ knotsBaromVisibWave heightAir tempDewpointWater temp
2018-Apr-05 18:45N 01°25' E 103°10'512.6
2018-Apr-05 18:20N 01°22' E 103°15'512.5
2018-Apr-05 17:55N 01°19' E 103°19'612.1
2018-Apr-05 17:26N 01°16' E 103°23'511.7
2018-Apr-05 17:01N 01°14' E 103°28'612.1
2018-Apr-05 16:30N 01°12' E 103°34'611.4
2018-Apr-05 16:01N 01°11' E 103°39'510.1
2018-Apr-05 15:30N 01°08' E 103°44'713.0
2018-Apr-05 15:00N 01°11' E 103°50'612.6
2018-Apr-05 14:30N 01°14' E 103°56'  

Dump ship's entire track history